Aérodrome :
LOGIN :

S'inscrire | Disclaimer

   EN    FR    IT 

 










Légende :    VFR   VFR Marginal   IFR   IFR Intensif   IFR Très Intensif
Visi : 
Plafond : 
>= 8 km
>= 3000ft
5 à 8 km
1000 à 3000 ft
1500m à 5 km
500 à 1000 ft
800 à 1500m
200 à 500 ft
< 800m
< 200 ft
Symboles :   Orages  Brouillard  Fortes neiges  Fortes précipitations  Vent > 20 kt
SIGMETs :   Divers  Orages  Givrage  Turbulence  Onde Orograph.  Cendres Volcan.






- Altitude de l'aérodrome : 124 ft
- Code IATA : RNS


LFRN - Rennes

DERNIER METAR :
  • 110530Z AUTO 24005KT CAVOK 05/04 Q1013 NOSIG

METARs EXPIRÉS :
  • 110500Z AUTO 25005KT CAVOK 06/05 Q1013 NOSIG
  • 110430Z AUTO 26006KT 9999 SCT040 06/05 Q1013 NOSIG
  • 110400Z AUTO 26007KT 9999 BKN037 OVC240 07/06 Q1013 NOSIG
  • 110330Z AUTO 25005KT CAVOK 07/06 Q1013 NOSIG
  • 110300Z AUTO 25005KT CAVOK 07/07 Q1014 NOSIG

TAF TAF LFRN
Valide du 11 à 06h jusqu'au 12 à 06h UTC


110500Z 1106/1206 25010KT 9999 SCT030
TEMPO 1108/1118 5000 SHRA BKN020TCU
BECMG 1109/1111 22010KT
PROB40
TEMPO 1112/1120 21020G33KT 2000 TSRAGS BKN008 BKN015CB
BECMG 1204/1206 18010KT 5000 RA BKN008
ATIS : +33 2 99 67 72 50



MET'MAP, la Météo Aéronautique d'un coup d'oeil ! - Copyright ORBIFLY Décembre 2007 - Disclaimer

ORBIFLY MET'MAP TEAM :

Programmation & Développement : Alexandra Zaïnal
Sur une idée originale de : Baudouin d'Aumeries
Assistance à la programmation : Marc-Olivier Méhu
Soutien technique & logistique : Manuel Goepfert

Contact : metmap@orbifly.com




SOURCES & CREDITS :

   NOAA